Terminal Aerodrome Forecast
Issued by NWS

Home | Current Version | Previous Version | Graphics & Text | Print | Product List | Glossary On
Versions: 1 2 3 4 5 6 7 8 9 10 11 12 13 14 15 16 17 18 19 20 21 22 23
199
FTUS43 KFGF 211132
TAFBJI
TAF
KBJI 211132Z 2112/2212 VRB04KT 2SM BR OVC002
      TEMPO 2112/2114 1/4SM FZFG
     FM211400 18005KT P6SM BKN015
      TEMPO 2114/2115 3SM BR
     FM211600 18006KT P6SM SCT035
     FM211900 21007KT P6SM SCT100=

USA.gov is the U.S. government's official web portal to all federal, state and local government web resources and services.